Draffin, Kentucky
Current Conditions -  °F | °C
As of 5:15 PM on Sunday 25 Jan 2015 (Local Time) from KPBX Reporting Station
Broken Clouds Broken Clouds  
Wind Chill:   Ceiling: 11000
Heat Index:   Visibility: 10mi
Dew Point:   Wind: 3mph
Humidity: 54%   Direction: 180°S
Pressure: 29.68"   Gusts: NA
Location:  37.3089°N, 82.3418°W
Report Text: KPBX 252215Z AUTO 18003KT 10SM BKN110 09/00 A2968 RMK AO2 T00871002
Loading
Personal Weather Stations






























Interactive Weather Map New forecast layout! Learn more

10-Day Weather Forecast

Advertisements
Track Severe Weather on mobile